sensor_id;sensor_type;location;lat;lon;timestamp;P1;durP1;ratioP1;P2;durP2;ratioP2
81672;SDS011;71092;41.158;-8.680;2024-02-21T00:01:03;15.68;;;6.38;;
81672;SDS011;71092;41.158;-8.680;2024-02-21T00:03:30;15.07;;;6.85;;
81672;SDS011;71092;41.158;-8.680;2024-02-21T00:05:56;16.77;;;7.00;;
81672;SDS011;71092;41.158;-8.680;2024-02-21T00:08:22;15.38;;;6.88;;
81672;SDS011;71092;41.158;-8.680;2024-02-21T00:10:48;15.80;;;6.47;;
81672;SDS011;71092;41.158;-8.680;2024-02-21T00:13:14;14.70;;;6.78;;
81672;SDS011;71092;41.158;-8.680;2024-02-21T00:15:40;15.73;;;7.45;;
81672;SDS011;71092;41.158;-8.680;2024-02-21T00:18:06;17.63;;;7.55;;
81672;SDS011;71092;41.158;-8.680;2024-02-21T00:20:32;14.57;;;7.45;;
81672;SDS011;71092;41.158;-8.680;2024-02-21T00:22:58;16.60;;;7.22;;
81672;SDS011;71092;41.158;-8.680;2024-02-21T00:25:24;18.55;;;6.72;;
81672;SDS011;71092;41.158;-8.680;2024-02-21T00:27:50;17.23;;;7.68;;
81672;SDS011;71092;41.158;-8.680;2024-02-21T00:30:16;16.08;;;7.53;;
81672;SDS011;71092;41.158;-8.680;2024-02-21T00:32:42;18.20;;;7.90;;
81672;SDS011;71092;41.158;-8.680;2024-02-21T00:35:08;15.90;;;6.97;;
81672;SDS011;71092;41.158;-8.680;2024-02-21T00:37:34;13.85;;;6.53;;
81672;SDS011;71092;41.158;-8.680;2024-02-21T00:40:00;15.15;;;7.35;;
81672;SDS011;71092;41.158;-8.680;2024-02-21T00:42:26;12.95;;;7.20;;
81672;SDS011;71092;41.158;-8.680;2024-02-21T00:44:51;14.85;;;6.60;;
81672;SDS011;71092;41.158;-8.680;2024-02-21T00:47:17;16.23;;;6.93;;
81672;SDS011;71092;41.158;-8.680;2024-02-21T00:49:43;17.48;;;7.82;;
81672;SDS011;71092;41.158;-8.680;2024-02-21T00:52:09;16.67;;;7.85;;
81672;SDS011;71092;41.158;-8.680;2024-02-21T00:54:35;14.68;;;7.38;;
81672;SDS011;71092;41.158;-8.680;2024-02-21T00:57:01;13.32;;;6.78;;
81672;SDS011;71092;41.158;-8.680;2024-02-21T00:59:27;16.63;;;7.43;;
81672;SDS011;71092;41.158;-8.680;2024-02-21T01:01:53;16.67;;;8.35;;
81672;SDS011;71092;41.158;-8.680;2024-02-21T01:04:19;16.52;;;7.65;;
81672;SDS011;71092;41.158;-8.680;2024-02-21T01:06:45;16.83;;;7.50;;
81672;SDS011;71092;41.158;-8.680;2024-02-21T01:09:11;16.08;;;7.18;;
81672;SDS011;71092;41.158;-8.680;2024-02-21T01:11:37;17.20;;;7.80;;
81672;SDS011;71092;41.158;-8.680;2024-02-21T01:14:03;14.07;;;7.47;;
81672;SDS011;71092;41.158;-8.680;2024-02-21T01:16:28;14.32;;;6.55;;
81672;SDS011;71092;41.158;-8.680;2024-02-21T01:18:54;13.80;;;7.30;;
81672;SDS011;71092;41.158;-8.680;2024-02-21T01:21:20;16.10;;;7.00;;
81672;SDS011;71092;41.158;-8.680;2024-02-21T01:23:46;16.83;;;7.35;;
81672;SDS011;71092;41.158;-8.680;2024-02-21T01:26:12;16.55;;;7.43;;
81672;SDS011;71092;41.158;-8.680;2024-02-21T01:28:41;15.85;;;7.82;;
81672;SDS011;71092;41.158;-8.680;2024-02-21T01:31:07;18.00;;;7.53;;
81672;SDS011;71092;41.158;-8.680;2024-02-21T01:33:33;14.13;;;7.18;;
81672;SDS011;71092;41.158;-8.680;2024-02-21T01:36:01;13.85;;;7.15;;
81672;SDS011;71092;41.158;-8.680;2024-02-21T01:38:27;16.35;;;7.50;;
81672;SDS011;71092;41.158;-8.680;2024-02-21T01:40:54;17.02;;;7.93;;
81672;SDS011;71092;41.158;-8.680;2024-02-21T01:43:20;17.17;;;8.57;;
81672;SDS011;71092;41.158;-8.680;2024-02-21T01:45:47;19.10;;;7.95;;
81672;SDS011;71092;41.158;-8.680;2024-02-21T01:48:21;15.02;;;7.15;;
81672;SDS011;71092;41.158;-8.680;2024-02-21T01:50:48;16.63;;;8.13;;
81672;SDS011;71092;41.158;-8.680;2024-02-21T01:53:22;16.65;;;7.53;;
81672;SDS011;71092;41.158;-8.680;2024-02-21T01:55:49;16.70;;;7.60;;
81672;SDS011;71092;41.158;-8.680;2024-02-21T01:58:16;16.52;;;7.43;;
81672;SDS011;71092;41.158;-8.680;2024-02-21T02:00:42;14.07;;;7.38;;
81672;SDS011;71092;41.158;-8.680;2024-02-21T02:03:12;13.70;;;8.20;;
81672;SDS011;71092;41.158;-8.680;2024-02-21T02:05:48;16.52;;;7.10;;
81672;SDS011;71092;41.158;-8.680;2024-02-21T02:08:15;13.27;;;6.80;;
81672;SDS011;71092;41.158;-8.680;2024-02-21T02:10:42;18.08;;;8.10;;
81672;SDS011;71092;41.158;-8.680;2024-02-21T02:13:08;15.35;;;7.65;;
81672;SDS011;71092;41.158;-8.680;2024-02-21T02:15:41;13.77;;;7.30;;
81672;SDS011;71092;41.158;-8.680;2024-02-21T02:18:09;16.52;;;7.45;;
81672;SDS011;71092;41.158;-8.680;2024-02-21T02:20:35;18.23;;;8.45;;
81672;SDS011;71092;41.158;-8.680;2024-02-21T02:23:11;19.63;;;8.15;;
81672;SDS011;71092;41.158;-8.680;2024-02-21T02:25:38;16.50;;;7.78;;
81672;SDS011;71092;41.158;-8.680;2024-02-21T02:28:05;15.35;;;7.07;;
81672;SDS011;71092;41.158;-8.680;2024-02-21T02:30:35;13.18;;;6.78;;
81672;SDS011;71092;41.158;-8.680;2024-02-21T02:33:02;14.82;;;7.93;;
81672;SDS011;71092;41.158;-8.680;2024-02-21T02:35:31;16.98;;;7.63;;
81672;SDS011;71092;41.158;-8.680;2024-02-21T02:37:57;12.98;;;7.20;;
81672;SDS011;71092;41.158;-8.680;2024-02-21T02:40:23;16.67;;;8.57;;
81672;SDS011;71092;41.158;-8.680;2024-02-21T02:42:50;15.75;;;8.15;;
81672;SDS011;71092;41.158;-8.680;2024-02-21T02:45:16;15.35;;;7.63;;
81672;SDS011;71092;41.158;-8.680;2024-02-21T02:47:46;14.98;;;8.02;;
81672;SDS011;71092;41.158;-8.680;2024-02-21T02:50:12;14.15;;;7.97;;
81672;SDS011;71092;41.158;-8.680;2024-02-21T02:52:39;14.02;;;8.15;;
81672;SDS011;71092;41.158;-8.680;2024-02-21T02:55:05;14.85;;;7.82;;
81672;SDS011;71092;41.158;-8.680;2024-02-21T02:57:32;17.95;;;8.57;;
81672;SDS011;71092;41.158;-8.680;2024-02-21T02:59:58;14.98;;;7.75;;
81672;SDS011;71092;41.158;-8.680;2024-02-21T03:02:24;15.23;;;8.38;;
81672;SDS011;71092;41.158;-8.680;2024-02-21T03:04:50;14.40;;;7.78;;
81672;SDS011;71092;41.158;-8.680;2024-02-21T03:07:16;13.75;;;7.30;;
81672;SDS011;71092;41.158;-8.680;2024-02-21T03:09:42;14.98;;;8.32;;
81672;SDS011;71092;41.158;-8.680;2024-02-21T03:12:08;15.88;;;9.27;;
81672;SDS011;71092;41.158;-8.680;2024-02-21T03:14:34;14.68;;;8.02;;
81672;SDS011;71092;41.158;-8.680;2024-02-21T03:17:00;18.60;;;8.82;;
81672;SDS011;71092;41.158;-8.680;2024-02-21T03:19:27;15.25;;;7.72;;
81672;SDS011;71092;41.158;-8.680;2024-02-21T03:21:54;14.93;;;8.23;;
81672;SDS011;71092;41.158;-8.680;2024-02-21T03:24:20;14.65;;;7.60;;
81672;SDS011;71092;41.158;-8.680;2024-02-21T03:26:46;16.17;;;8.75;;
81672;SDS011;71092;41.158;-8.680;2024-02-21T03:29:16;13.90;;;7.50;;
81672;SDS011;71092;41.158;-8.680;2024-02-21T03:31:42;12.43;;;7.78;;
81672;SDS011;71092;41.158;-8.680;2024-02-21T03:34:11;12.07;;;8.65;;
81672;SDS011;71092;41.158;-8.680;2024-02-21T03:36:37;15.18;;;7.70;;
81672;SDS011;71092;41.158;-8.680;2024-02-21T03:39:04;14.30;;;8.15;;
81672;SDS011;71092;41.158;-8.680;2024-02-21T03:41:30;17.85;;;9.93;;
81672;SDS011;71092;41.158;-8.680;2024-02-21T03:43:56;14.77;;;8.10;;
81672;SDS011;71092;41.158;-8.680;2024-02-21T03:46:23;16.65;;;9.98;;
81672;SDS011;71092;41.158;-8.680;2024-02-21T03:48:50;15.93;;;8.68;;
81672;SDS011;71092;41.158;-8.680;2024-02-21T03:51:16;15.13;;;8.88;;
81672;SDS011;71092;41.158;-8.680;2024-02-21T03:53:42;16.98;;;9.05;;
81672;SDS011;71092;41.158;-8.680;2024-02-21T03:56:08;13.63;;;8.02;;
81672;SDS011;71092;41.158;-8.680;2024-02-21T03:58:33;14.65;;;8.02;;
81672;SDS011;71092;41.158;-8.680;2024-02-21T04:01:00;14.63;;;8.13;;
81672;SDS011;71092;41.158;-8.680;2024-02-21T04:03:27;15.90;;;8.50;;
81672;SDS011;71092;41.158;-8.680;2024-02-21T04:05:53;15.45;;;8.25;;
81672;SDS011;71092;41.158;-8.680;2024-02-21T04:08:18;15.10;;;8.15;;
81672;SDS011;71092;41.158;-8.680;2024-02-21T04:10:44;17.77;;;9.27;;
81672;SDS011;71092;41.158;-8.680;2024-02-21T04:13:10;14.10;;;8.10;;
81672;SDS011;71092;41.158;-8.680;2024-02-21T04:15:36;14.98;;;8.80;;
81672;SDS011;71092;41.158;-8.680;2024-02-21T04:18:02;16.08;;;8.80;;
81672;SDS011;71092;41.158;-8.680;2024-02-21T04:20:28;15.10;;;8.20;;
81672;SDS011;71092;41.158;-8.680;2024-02-21T04:22:55;14.63;;;8.25;;
81672;SDS011;71092;41.158;-8.680;2024-02-21T04:25:21;15.80;;;8.25;;
81672;SDS011;71092;41.158;-8.680;2024-02-21T04:27:47;14.20;;;8.18;;
81672;SDS011;71092;41.158;-8.680;2024-02-21T04:30:12;19.05;;;9.30;;
81672;SDS011;71092;41.158;-8.680;2024-02-21T04:32:39;15.32;;;8.73;;
81672;SDS011;71092;41.158;-8.680;2024-02-21T04:35:06;14.85;;;8.43;;
81672;SDS011;71092;41.158;-8.680;2024-02-21T04:37:32;18.33;;;8.35;;
81672;SDS011;71092;41.158;-8.680;2024-02-21T04:39:58;14.38;;;8.30;;
81672;SDS011;71092;41.158;-8.680;2024-02-21T04:42:24;14.63;;;7.47;;
81672;SDS011;71092;41.158;-8.680;2024-02-21T04:44:50;13.85;;;8.57;;
81672;SDS011;71092;41.158;-8.680;2024-02-21T04:47:16;15.05;;;8.00;;
81672;SDS011;71092;41.158;-8.680;2024-02-21T04:49:42;14.35;;;8.73;;
81672;SDS011;71092;41.158;-8.680;2024-02-21T04:52:08;13.70;;;8.32;;
81672;SDS011;71092;41.158;-8.680;2024-02-21T04:54:33;14.27;;;8.10;;
81672;SDS011;71092;41.158;-8.680;2024-02-21T04:57:01;13.90;;;8.50;;
81672;SDS011;71092;41.158;-8.680;2024-02-21T04:59:27;13.43;;;7.47;;
81672;SDS011;71092;41.158;-8.680;2024-02-21T05:01:53;14.27;;;8.20;;
81672;SDS011;71092;41.158;-8.680;2024-02-21T05:04:19;15.02;;;8.77;;
81672;SDS011;71092;41.158;-8.680;2024-02-21T05:06:45;14.70;;;8.15;;
81672;SDS011;71092;41.158;-8.680;2024-02-21T05:09:11;15.23;;;8.98;;
81672;SDS011;71092;41.158;-8.680;2024-02-21T05:11:37;14.02;;;8.27;;
81672;SDS011;71092;41.158;-8.680;2024-02-21T05:14:05;15.25;;;8.63;;
81672;SDS011;71092;41.158;-8.680;2024-02-21T05:16:32;12.98;;;8.52;;
81672;SDS011;71092;41.158;-8.680;2024-02-21T05:18:58;17.40;;;9.32;;
81672;SDS011;71092;41.158;-8.680;2024-02-21T05:21:24;13.95;;;8.30;;
81672;SDS011;71092;41.158;-8.680;2024-02-21T05:23:50;15.10;;;8.38;;
81672;SDS011;71092;41.158;-8.680;2024-02-21T05:26:20;15.98;;;8.25;;
81672;SDS011;71092;41.158;-8.680;2024-02-21T05:28:49;14.57;;;8.27;;
81672;SDS011;71092;41.158;-8.680;2024-02-21T05:31:16;15.45;;;8.48;;
81672;SDS011;71092;41.158;-8.680;2024-02-21T05:33:43;13.93;;;8.90;;
81672;SDS011;71092;41.158;-8.680;2024-02-21T05:36:09;14.77;;;8.00;;
81672;SDS011;71092;41.158;-8.680;2024-02-21T05:38:35;13.82;;;7.90;;
81672;SDS011;71092;41.158;-8.680;2024-02-21T05:41:02;16.75;;;9.45;;
81672;SDS011;71092;41.158;-8.680;2024-02-21T05:43:28;15.13;;;8.68;;
81672;SDS011;71092;41.158;-8.680;2024-02-21T05:45:54;15.80;;;8.85;;
81672;SDS011;71092;41.158;-8.680;2024-02-21T05:48:20;14.75;;;9.60;;
81672;SDS011;71092;41.158;-8.680;2024-02-21T05:50:47;15.60;;;9.18;;
81672;SDS011;71092;41.158;-8.680;2024-02-21T05:53:13;16.67;;;8.55;;
81672;SDS011;71092;41.158;-8.680;2024-02-21T05:55:40;14.45;;;8.60;;
81672;SDS011;71092;41.158;-8.680;2024-02-21T05:58:06;15.80;;;9.40;;
81672;SDS011;71092;41.158;-8.680;2024-02-21T06:00:32;14.40;;;7.88;;
81672;SDS011;71092;41.158;-8.680;2024-02-21T06:02:59;15.20;;;8.65;;
81672;SDS011;71092;41.158;-8.680;2024-02-21T06:05:25;13.32;;;8.43;;
81672;SDS011;71092;41.158;-8.680;2024-02-21T06:07:51;16.55;;;8.95;;
81672;SDS011;71092;41.158;-8.680;2024-02-21T06:10:16;16.35;;;9.60;;
81672;SDS011;71092;41.158;-8.680;2024-02-21T06:12:42;14.48;;;8.02;;
81672;SDS011;71092;41.158;-8.680;2024-02-21T06:15:08;17.83;;;9.25;;
81672;SDS011;71092;41.158;-8.680;2024-02-21T06:17:34;16.55;;;9.93;;
81672;SDS011;71092;41.158;-8.680;2024-02-21T06:20:00;15.85;;;9.65;;
81672;SDS011;71092;41.158;-8.680;2024-02-21T06:22:26;16.80;;;9.02;;
81672;SDS011;71092;41.158;-8.680;2024-02-21T06:24:52;18.83;;;9.48;;
81672;SDS011;71092;41.158;-8.680;2024-02-21T06:27:19;14.50;;;8.55;;
81672;SDS011;71092;41.158;-8.680;2024-02-21T06:29:45;13.00;;;7.82;;
81672;SDS011;71092;41.158;-8.680;2024-02-21T06:32:11;15.27;;;8.55;;
81672;SDS011;71092;41.158;-8.680;2024-02-21T06:34:37;17.73;;;8.63;;
81672;SDS011;71092;41.158;-8.680;2024-02-21T06:37:03;16.48;;;8.85;;
81672;SDS011;71092;41.158;-8.680;2024-02-21T06:39:29;15.55;;;9.68;;
81672;SDS011;71092;41.158;-8.680;2024-02-21T06:41:55;15.20;;;8.98;;
81672;SDS011;71092;41.158;-8.680;2024-02-21T06:44:21;15.30;;;9.25;;
81672;SDS011;71092;41.158;-8.680;2024-02-21T06:46:47;18.27;;;9.50;;
81672;SDS011;71092;41.158;-8.680;2024-02-21T06:49:13;16.15;;;8.88;;
81672;SDS011;71092;41.158;-8.680;2024-02-21T06:51:42;15.68;;;8.90;;
81672;SDS011;71092;41.158;-8.680;2024-02-21T06:54:09;17.42;;;9.52;;
81672;SDS011;71092;41.158;-8.680;2024-02-21T06:56:35;14.95;;;9.80;;
81672;SDS011;71092;41.158;-8.680;2024-02-21T06:59:02;18.15;;;9.23;;
81672;SDS011;71092;41.158;-8.680;2024-02-21T07:01:29;14.10;;;8.88;;
81672;SDS011;71092;41.158;-8.680;2024-02-21T07:03:56;13.88;;;8.95;;
81672;SDS011;71092;41.158;-8.680;2024-02-21T07:06:22;17.30;;;9.63;;
81672;SDS011;71092;41.158;-8.680;2024-02-21T07:08:48;16.75;;;10.40;;
81672;SDS011;71092;41.158;-8.680;2024-02-21T07:11:14;15.75;;;10.07;;
81672;SDS011;71092;41.158;-8.680;2024-02-21T07:13:40;22.50;;;9.63;;
81672;SDS011;71092;41.158;-8.680;2024-02-21T07:16:06;16.50;;;8.57;;
81672;SDS011;71092;41.158;-8.680;2024-02-21T07:18:33;16.35;;;9.88;;
81672;SDS011;71092;41.158;-8.680;2024-02-21T07:20:59;15.23;;;8.65;;
81672;SDS011;71092;41.158;-8.680;2024-02-21T07:23:25;14.93;;;9.43;;
81672;SDS011;71092;41.158;-8.680;2024-02-21T07:25:51;14.20;;;9.90;;
81672;SDS011;71092;41.158;-8.680;2024-02-21T07:28:17;15.93;;;10.23;;
81672;SDS011;71092;41.158;-8.680;2024-02-21T07:30:43;15.60;;;9.32;;
81672;SDS011;71092;41.158;-8.680;2024-02-21T07:33:09;21.70;;;12.18;;
81672;SDS011;71092;41.158;-8.680;2024-02-21T07:35:35;20.45;;;11.57;;
81672;SDS011;71092;41.158;-8.680;2024-02-21T07:38:03;20.25;;;10.85;;
81672;SDS011;71092;41.158;-8.680;2024-02-21T07:40:30;23.27;;;12.43;;
81672;SDS011;71092;41.158;-8.680;2024-02-21T07:42:56;28.40;;;11.60;;
81672;SDS011;71092;41.158;-8.680;2024-02-21T07:45:22;20.08;;;12.55;;
81672;SDS011;71092;41.158;-8.680;2024-02-21T07:47:49;26.10;;;14.13;;
81672;SDS011;71092;41.158;-8.680;2024-02-21T07:50:16;21.42;;;10.65;;
81672;SDS011;71092;41.158;-8.680;2024-02-21T07:52:42;19.20;;;12.18;;
81672;SDS011;71092;41.158;-8.680;2024-02-21T07:55:08;22.83;;;12.55;;
81672;SDS011;71092;41.158;-8.680;2024-02-21T07:57:36;17.60;;;10.48;;
81672;SDS011;71092;41.158;-8.680;2024-02-21T08:00:02;22.55;;;9.93;;
81672;SDS011;71092;41.158;-8.680;2024-02-21T08:02:38;20.33;;;10.98;;
81672;SDS011;71092;41.158;-8.680;2024-02-21T08:05:04;19.88;;;9.88;;
81672;SDS011;71092;41.158;-8.680;2024-02-21T08:07:30;19.33;;;11.00;;
81672;SDS011;71092;41.158;-8.680;2024-02-21T08:09:56;19.33;;;12.00;;
81672;SDS011;71092;41.158;-8.680;2024-02-21T08:12:22;22.17;;;11.00;;
81672;SDS011;71092;41.158;-8.680;2024-02-21T08:14:48;20.27;;;11.02;;
81672;SDS011;71092;41.158;-8.680;2024-02-21T08:17:14;20.85;;;13.43;;
81672;SDS011;71092;41.158;-8.680;2024-02-21T08:19:40;18.38;;;12.02;;
81672;SDS011;71092;41.158;-8.680;2024-02-21T08:22:06;20.35;;;11.43;;
81672;SDS011;71092;41.158;-8.680;2024-02-21T08:24:32;17.83;;;11.30;;
81672;SDS011;71092;41.158;-8.680;2024-02-21T08:26:58;22.77;;;12.00;;
81672;SDS011;71092;41.158;-8.680;2024-02-21T08:29:24;17.80;;;11.05;;
81672;SDS011;71092;41.158;-8.680;2024-02-21T08:31:49;20.38;;;10.82;;
81672;SDS011;71092;41.158;-8.680;2024-02-21T08:34:15;21.75;;;11.10;;
81672;SDS011;71092;41.158;-8.680;2024-02-21T08:36:41;24.23;;;11.15;;
81672;SDS011;71092;41.158;-8.680;2024-02-21T08:39:08;32.83;;;11.27;;
81672;SDS011;71092;41.158;-8.680;2024-02-21T08:41:35;22.17;;;13.13;;
81672;SDS011;71092;41.158;-8.680;2024-02-21T08:44:01;22.98;;;13.75;;
81672;SDS011;71092;41.158;-8.680;2024-02-21T08:46:27;22.48;;;13.10;;
81672;SDS011;71092;41.158;-8.680;2024-02-21T08:48:53;21.13;;;11.35;;
81672;SDS011;71092;41.158;-8.680;2024-02-21T08:51:19;16.60;;;10.95;;
81672;SDS011;71092;41.158;-8.680;2024-02-21T08:53:46;19.05;;;11.95;;
81672;SDS011;71092;41.158;-8.680;2024-02-21T08:56:14;20.92;;;11.10;;
81672;SDS011;71092;41.158;-8.680;2024-02-21T08:58:40;25.35;;;12.63;;
81672;SDS011;71092;41.158;-8.680;2024-02-21T09:01:06;23.38;;;12.07;;
81672;SDS011;71092;41.158;-8.680;2024-02-21T09:03:36;23.52;;;12.70;;
81672;SDS011;71092;41.158;-8.680;2024-02-21T09:06:03;22.08;;;11.70;;
81672;SDS011;71092;41.158;-8.680;2024-02-21T09:08:30;20.15;;;11.68;;
81672;SDS011;71092;41.158;-8.680;2024-02-21T09:10:56;24.17;;;12.43;;
81672;SDS011;71092;41.158;-8.680;2024-02-21T09:13:22;20.85;;;11.68;;
81672;SDS011;71092;41.158;-8.680;2024-02-21T09:15:49;23.23;;;13.57;;
81672;SDS011;71092;41.158;-8.680;2024-02-21T09:18:18;26.42;;;12.82;;
81672;SDS011;71092;41.158;-8.680;2024-02-21T09:20:44;23.65;;;13.23;;
81672;SDS011;71092;41.158;-8.680;2024-02-21T09:23:10;21.90;;;13.40;;
81672;SDS011;71092;41.158;-8.680;2024-02-21T09:25:36;31.83;;;14.27;;
81672;SDS011;71092;41.158;-8.680;2024-02-21T09:28:02;26.30;;;13.65;;
81672;SDS011;71092;41.158;-8.680;2024-02-21T09:30:29;22.08;;;13.82;;
81672;SDS011;71092;41.158;-8.680;2024-02-21T09:32:55;23.17;;;13.05;;
81672;SDS011;71092;41.158;-8.680;2024-02-21T09:35:24;23.33;;;12.60;;
81672;SDS011;71092;41.158;-8.680;2024-02-21T09:37:52;22.20;;;12.38;;
81672;SDS011;71092;41.158;-8.680;2024-02-21T09:40:18;23.48;;;13.82;;
81672;SDS011;71092;41.158;-8.680;2024-02-21T09:42:44;22.52;;;12.38;;
81672;SDS011;71092;41.158;-8.680;2024-02-21T09:45:23;20.38;;;12.07;;
81672;SDS011;71092;41.158;-8.680;2024-02-21T09:50:40;20.33;;;12.75;;
81672;SDS011;71092;41.158;-8.680;2024-02-21T09:53:06;29.05;;;12.57;;
81672;SDS011;71092;41.158;-8.680;2024-02-21T09:55:36;19.38;;;13.43;;
81672;SDS011;71092;41.158;-8.680;2024-02-21T09:58:05;29.70;;;14.50;;
81672;SDS011;71092;41.158;-8.680;2024-02-21T10:00:37;21.38;;;12.82;;
81672;SDS011;71092;41.158;-8.680;2024-02-21T10:03:03;26.55;;;13.90;;
81672;SDS011;71092;41.158;-8.680;2024-02-21T10:05:34;23.63;;;12.68;;
81672;SDS011;71092;41.158;-8.680;2024-02-21T10:08:01;25.40;;;13.90;;
81672;SDS011;71092;41.158;-8.680;2024-02-21T10:10:28;23.25;;;12.68;;
81672;SDS011;71092;41.158;-8.680;2024-02-21T10:12:55;23.75;;;13.18;;
81672;SDS011;71092;41.158;-8.680;2024-02-21T10:15:22;25.13;;;12.70;;
81672;SDS011;71092;41.158;-8.680;2024-02-21T10:17:49;25.33;;;13.27;;
81672;SDS011;71092;41.158;-8.680;2024-02-21T10:20:25;27.58;;;13.15;;
81672;SDS011;71092;41.158;-8.680;2024-02-21T10:23:00;29.60;;;13.55;;
81672;SDS011;71092;41.158;-8.680;2024-02-21T10:25:35;29.85;;;13.93;;
81672;SDS011;71092;41.158;-8.680;2024-02-21T10:28:07;31.70;;;14.45;;
81672;SDS011;71092;41.158;-8.680;2024-02-21T10:30:32;29.55;;;13.52;;
81672;SDS011;71092;41.158;-8.680;2024-02-21T10:32:58;33.83;;;14.10;;
81672;SDS011;71092;41.158;-8.680;2024-02-21T10:35:28;29.70;;;13.23;;
81672;SDS011;71092;41.158;-8.680;2024-02-21T10:37:58;33.03;;;13.90;;
81672;SDS011;71092;41.158;-8.680;2024-02-21T10:40:28;29.77;;;14.50;;
81672;SDS011;71092;41.158;-8.680;2024-02-21T10:43:00;39.63;;;15.18;;
81672;SDS011;71092;41.158;-8.680;2024-02-21T10:45:30;37.95;;;14.48;;
81672;SDS011;71092;41.158;-8.680;2024-02-21T10:48:13;29.20;;;14.95;;
81672;SDS011;71092;41.158;-8.680;2024-02-21T10:51:22;35.47;;;14.50;;
81672;SDS011;71092;41.158;-8.680;2024-02-21T10:56:31;32.22;;;14.38;;
81672;SDS011;71092;41.158;-8.680;2024-02-21T10:59:01;37.33;;;14.10;;
81672;SDS011;71092;41.158;-8.680;2024-02-21T11:01:28;30.90;;;14.02;;
81672;SDS011;71092;41.158;-8.680;2024-02-21T11:04:02;29.00;;;14.20;;
81672;SDS011;71092;41.158;-8.680;2024-02-21T11:06:29;37.15;;;15.55;;
81672;SDS011;71092;41.158;-8.680;2024-02-21T11:09:08;32.15;;;14.73;;
81672;SDS011;71092;41.158;-8.680;2024-02-21T11:11:35;31.30;;;13.52;;
81672;SDS011;71092;41.158;-8.680;2024-02-21T11:14:03;35.88;;;15.15;;
81672;SDS011;71092;41.158;-8.680;2024-02-21T11:16:45;32.65;;;14.27;;
81672;SDS011;71092;41.158;-8.680;2024-02-21T11:22:13;31.02;;;13.75;;
81672;SDS011;71092;41.158;-8.680;2024-02-21T11:24:41;37.17;;;14.30;;
81672;SDS011;71092;41.158;-8.680;2024-02-21T11:29:45;32.20;;;14.55;;
81672;SDS011;71092;41.158;-8.680;2024-02-21T11:32:13;36.85;;;14.07;;
81672;SDS011;71092;41.158;-8.680;2024-02-21T11:34:40;39.33;;;14.70;;
81672;SDS011;71092;41.158;-8.680;2024-02-21T11:37:13;31.77;;;14.50;;
81672;SDS011;71092;41.158;-8.680;2024-02-21T11:39:42;33.28;;;14.25;;
81672;SDS011;71092;41.158;-8.680;2024-02-21T11:42:08;36.15;;;14.68;;
81672;SDS011;71092;41.158;-8.680;2024-02-21T11:44:35;36.70;;;14.32;;
81672;SDS011;71092;41.158;-8.680;2024-02-21T11:47:05;30.77;;;13.85;;
81672;SDS011;71092;41.158;-8.680;2024-02-21T11:49:38;35.95;;;14.48;;
81672;SDS011;71092;41.158;-8.680;2024-02-21T11:52:11;34.05;;;15.02;;
81672;SDS011;71092;41.158;-8.680;2024-02-21T11:54:37;30.23;;;14.27;;
81672;SDS011;71092;41.158;-8.680;2024-02-21T11:57:03;37.13;;;14.98;;
81672;SDS011;71092;41.158;-8.680;2024-02-21T11:59:32;35.65;;;14.68;;
81672;SDS011;71092;41.158;-8.680;2024-02-21T12:02:01;35.83;;;14.50;;
81672;SDS011;71092;41.158;-8.680;2024-02-21T12:06:59;32.50;;;14.25;;
81672;SDS011;71092;41.158;-8.680;2024-02-21T12:09:25;31.58;;;12.68;;
81672;SDS011;71092;41.158;-8.680;2024-02-21T12:12:00;36.53;;;14.07;;
81672;SDS011;71092;41.158;-8.680;2024-02-21T12:14:33;44.65;;;15.57;;
81672;SDS011;71092;41.158;-8.680;2024-02-21T12:17:00;28.63;;;12.85;;
81672;SDS011;71092;41.158;-8.680;2024-02-21T12:19:29;38.28;;;16.80;;
81672;SDS011;71092;41.158;-8.680;2024-02-21T12:21:58;41.20;;;14.18;;
81672;SDS011;71092;41.158;-8.680;2024-02-21T12:24:25;40.30;;;14.57;;
81672;SDS011;71092;41.158;-8.680;2024-02-21T12:26:52;35.35;;;14.63;;
81672;SDS011;71092;41.158;-8.680;2024-02-21T12:29:22;33.38;;;14.05;;
81672;SDS011;71092;41.158;-8.680;2024-02-21T12:31:48;36.10;;;14.80;;
81672;SDS011;71092;41.158;-8.680;2024-02-21T12:34:15;37.75;;;14.73;;
81672;SDS011;71092;41.158;-8.680;2024-02-21T12:36:44;37.33;;;13.55;;
81672;SDS011;71092;41.158;-8.680;2024-02-21T12:39:13;29.60;;;14.75;;
81672;SDS011;71092;41.158;-8.680;2024-02-21T12:41:40;33.65;;;14.07;;
81672;SDS011;71092;41.158;-8.680;2024-02-21T12:44:06;34.90;;;14.60;;
81672;SDS011;71092;41.158;-8.680;2024-02-21T12:46:33;35.20;;;14.45;;
81672;SDS011;71092;41.158;-8.680;2024-02-21T12:49:02;32.75;;;12.90;;
81672;SDS011;71092;41.158;-8.680;2024-02-21T12:51:29;37.83;;;14.18;;
81672;SDS011;71092;41.158;-8.680;2024-02-21T12:53:57;30.27;;;13.13;;
81672;SDS011;71092;41.158;-8.680;2024-02-21T12:56:24;31.30;;;13.95;;
81672;SDS011;71092;41.158;-8.680;2024-02-21T12:58:52;34.97;;;14.98;;
81672;SDS011;71092;41.158;-8.680;2024-02-21T13:01:19;32.55;;;13.65;;
81672;SDS011;71092;41.158;-8.680;2024-02-21T13:03:45;30.27;;;12.80;;
81672;SDS011;71092;41.158;-8.680;2024-02-21T13:06:12;33.50;;;13.73;;
81672;SDS011;71092;41.158;-8.680;2024-02-21T13:08:38;35.42;;;12.38;;
81672;SDS011;71092;41.158;-8.680;2024-02-21T13:11:04;29.30;;;13.07;;
81672;SDS011;71092;41.158;-8.680;2024-02-21T13:13:30;36.50;;;13.80;;
81672;SDS011;71092;41.158;-8.680;2024-02-21T13:15:57;32.40;;;13.50;;
81672;SDS011;71092;41.158;-8.680;2024-02-21T13:18:24;24.50;;;12.27;;
81672;SDS011;71092;41.158;-8.680;2024-02-21T13:20:50;30.77;;;13.25;;
81672;SDS011;71092;41.158;-8.680;2024-02-21T13:23:16;25.98;;;11.82;;
81672;SDS011;71092;41.158;-8.680;2024-02-21T13:25:42;27.83;;;12.18;;
81672;SDS011;71092;41.158;-8.680;2024-02-21T13:28:09;30.73;;;13.10;;
81672;SDS011;71092;41.158;-8.680;2024-02-21T13:30:35;29.92;;;13.35;;
81672;SDS011;71092;41.158;-8.680;2024-02-21T13:33:01;26.35;;;11.60;;
81672;SDS011;71092;41.158;-8.680;2024-02-21T13:35:28;32.17;;;12.38;;
81672;SDS011;71092;41.158;-8.680;2024-02-21T13:37:54;31.42;;;14.35;;
81672;SDS011;71092;41.158;-8.680;2024-02-21T13:40:20;25.67;;;11.93;;
81672;SDS011;71092;41.158;-8.680;2024-02-21T13:42:46;25.27;;;13.38;;
81672;SDS011;71092;41.158;-8.680;2024-02-21T13:45:12;26.63;;;12.15;;
81672;SDS011;71092;41.158;-8.680;2024-02-21T13:47:38;28.25;;;11.85;;
81672;SDS011;71092;41.158;-8.680;2024-02-21T13:50:04;24.40;;;11.80;;
81672;SDS011;71092;41.158;-8.680;2024-02-21T13:52:34;27.63;;;13.18;;
81672;SDS011;71092;41.158;-8.680;2024-02-21T13:55:01;23.98;;;11.18;;
81672;SDS011;71092;41.158;-8.680;2024-02-21T13:57:27;25.20;;;11.15;;
81672;SDS011;71092;41.158;-8.680;2024-02-21T13:59:53;28.58;;;12.00;;
81672;SDS011;71092;41.158;-8.680;2024-02-21T14:02:19;26.40;;;12.30;;
81672;SDS011;71092;41.158;-8.680;2024-02-21T14:04:44;27.88;;;13.43;;
81672;SDS011;71092;41.158;-8.680;2024-02-21T14:07:10;32.47;;;13.52;;
81672;SDS011;71092;41.158;-8.680;2024-02-21T14:09:36;30.17;;;13.30;;
81672;SDS011;71092;41.158;-8.680;2024-02-21T14:12:03;26.45;;;12.23;;
81672;SDS011;71092;41.158;-8.680;2024-02-21T14:14:36;31.05;;;12.98;;
81672;SDS011;71092;41.158;-8.680;2024-02-21T14:17:02;24.77;;;12.02;;
81672;SDS011;71092;41.158;-8.680;2024-02-21T14:19:29;32.95;;;11.98;;
81672;SDS011;71092;41.158;-8.680;2024-02-21T14:21:56;32.88;;;13.50;;
81672;SDS011;71092;41.158;-8.680;2024-02-21T14:24:22;25.35;;;12.50;;
81672;SDS011;71092;41.158;-8.680;2024-02-21T14:26:48;30.02;;;12.02;;
81672;SDS011;71092;41.158;-8.680;2024-02-21T14:29:14;30.02;;;12.13;;